メインページ
METAR-TAF:

METAR-TAF

空港 :

ダマスカス, シリア

ダマスカス国際空港

緯度: 33-25N, 経度: 036-31E, 海抜: 608m

現時点の気象観測

当レポートは43分前の01:00(UTC)に作成
南西の風 10kt
気温 7°C
湿度 87%
気圧 1014 hPa
視程10km以上
高度3000ftの雲はほとんどない
高度10000ftの雲は散在している

METAR: OSDI 180100Z 23010KT 9999 FEW030 SCT100 07/05 Q1014

時間: 03:43 (01:43 UTC)

予報

予報は18日の 00時(UTC)から 19日の 06時(UTC)まで有効
変向風 3kt
視程: 3000m
18日の 02時(UTC)から 18日の 05時(UTC)まで徐々に
視程: 0200m
18日の 06時(UTC)から 18日の 08時(UTC)まで徐々に
南西の風 12kt
視程: 6000m
高度3000ftの雲は散在している
高度10000ftの千切れ雲あり
18日の 22時(UTC)から 18日の 24時(UTC)まで徐々に
西の風 20kt、最大35ktの突風を伴う
視程: 3000m
高度2500ftの雲は散在している, 積乱雲.
高度3000ftの千切れ雲あり
高度9000ftの曇り
激しい雷雨, にわか雨

TAF: OSDI 1800/1906 VRB03KT 3000 BR BECMG 1802/1805 0200 FG BECMG 1806/1808 22012KT 6000 SCT030 BKN100 BECMG 1822/1824 26020G35KT 3000 TS SHRA SCT025CB BKN030 OVC090

4,000以上の空港の気象観測と天気予報(METAR報とTAF報)

利用可能な観測所は地図上に黄色い丸と赤い丸で示す。

丸の上にカーソルを重ねると観測所名を参照できる。

次にクリックすると気象観測と天気予報を参照できる。

マップの切り替え:黒色「×」印の緑ボタンをクリックして拡大、「-」印の緑ボタンをクリックして縮小、緑色の三角印をクリックして隣りの地図に切り替え


METAR-TAF: